sensor_id;sensor_type;location;lat;lon;timestamp;pressure;altitude;pressure_sealevel;temperature;humidity
31092;BME280;67728;53.122;12.776;2023-04-03T00:01:16;102288.06;;;-1.63;83.79
31092;BME280;67728;53.122;12.776;2023-04-03T00:02:46;102282.53;;;-1.70;83.22
31092;BME280;67728;53.122;12.776;2023-04-03T00:04:18;102288.91;;;-1.77;84.36
31092;BME280;67728;53.122;12.776;2023-04-03T00:05:51;102293.97;;;-1.92;85.11
31092;BME280;67728;53.122;12.776;2023-04-03T00:07:23;102292.47;;;-1.88;85.06
31092;BME280;67728;53.122;12.776;2023-04-03T00:08:54;102295.16;;;-2.00;84.72
31092;BME280;67728;53.122;12.776;2023-04-03T00:10:26;102298.63;;;-2.12;85.53
31092;BME280;67728;53.122;12.776;2023-04-03T00:11:58;102299.22;;;-2.03;84.73
31092;BME280;67728;53.122;12.776;2023-04-03T00:13:32;102303.16;;;-1.94;84.98
31092;BME280;67728;53.122;12.776;2023-04-03T00:15:05;102303.88;;;-1.96;85.02
31092;BME280;67728;53.122;12.776;2023-04-03T00:16:36;102299.41;;;-1.86;84.79
31092;BME280;67728;53.122;12.776;2023-04-03T00:18:08;102291.91;;;-1.84;84.58
31092;BME280;67728;53.122;12.776;2023-04-03T00:19:39;102296.28;;;-1.82;84.68
31092;BME280;67728;53.122;12.776;2023-04-03T00:21:13;102293.31;;;-1.74;84.80
31092;BME280;67728;53.122;12.776;2023-04-03T00:22:44;102298.25;;;-1.91;84.99
31092;BME280;67728;53.122;12.776;2023-04-03T00:24:16;102299.97;;;-1.76;84.36
31092;BME280;67728;53.122;12.776;2023-04-03T00:25:47;102297.81;;;-1.70;84.26
31092;BME280;67728;53.122;12.776;2023-04-03T00:27:18;102293.84;;;-1.65;83.99
31092;BME280;67728;53.122;12.776;2023-04-03T00:28:49;102302.28;;;-1.94;83.56
31092;BME280;67728;53.122;12.776;2023-04-03T00:30:23;102302.56;;;-2.17;84.86
31092;BME280;67728;53.122;12.776;2023-04-03T00:31:54;102303.44;;;-2.17;84.30
31092;BME280;67728;53.122;12.776;2023-04-03T00:33:26;102292.28;;;-2.19;85.19
31092;BME280;67728;53.122;12.776;2023-04-03T00:34:58;102297.38;;;-2.19;84.52
31092;BME280;67728;53.122;12.776;2023-04-03T00:36:31;102297.59;;;-2.29;85.40
31092;BME280;67728;53.122;12.776;2023-04-03T00:38:02;102289.94;;;-2.16;85.37
31092;BME280;67728;53.122;12.776;2023-04-03T00:39:35;102296.72;;;-2.16;84.39
31092;BME280;67728;53.122;12.776;2023-04-03T00:41:07;102294.63;;;-2.09;84.15
31092;BME280;67728;53.122;12.776;2023-04-03T00:42:40;102295.28;;;-1.98;84.39
31092;BME280;67728;53.122;12.776;2023-04-03T00:44:21;102289.34;;;-2.12;84.08
31092;BME280;67728;53.122;12.776;2023-04-03T00:45:53;102298.50;;;-2.28;85.26
31092;BME280;67728;53.122;12.776;2023-04-03T00:47:25;102302.19;;;-2.23;84.68
31092;BME280;67728;53.122;12.776;2023-04-03T00:48:57;102300.59;;;-2.08;84.94
31092;BME280;67728;53.122;12.776;2023-04-03T00:50:29;102299.41;;;-2.00;85.18
31092;BME280;67728;53.122;12.776;2023-04-03T00:52:01;102292.97;;;-2.21;84.60
31092;BME280;67728;53.122;12.776;2023-04-03T00:53:37;102297.63;;;-2.42;85.57
31092;BME280;67728;53.122;12.776;2023-04-03T00:55:10;102295.00;;;-2.57;85.01
31092;BME280;67728;53.122;12.776;2023-04-03T00:56:41;102297.00;;;-2.66;85.20
31092;BME280;67728;53.122;12.776;2023-04-03T00:58:15;102286.84;;;-2.66;85.56
31092;BME280;67728;53.122;12.776;2023-04-03T00:59:50;102290.75;;;-2.71;84.68
31092;BME280;67728;53.122;12.776;2023-04-03T01:01:24;102280.88;;;-2.66;84.35
31092;BME280;67728;53.122;12.776;2023-04-03T01:02:56;102285.97;;;-2.79;84.61
31092;BME280;67728;53.122;12.776;2023-04-03T01:04:30;102293.00;;;-2.75;85.07
31092;BME280;67728;53.122;12.776;2023-04-03T01:06:01;102294.97;;;-2.71;86.49
31092;BME280;67728;53.122;12.776;2023-04-03T01:07:34;102300.28;;;-2.54;85.75
31092;BME280;67728;53.122;12.776;2023-04-03T01:09:07;102303.50;;;-2.43;85.20
31092;BME280;67728;53.122;12.776;2023-04-03T01:10:38;102303.50;;;-2.43;85.74
31092;BME280;67728;53.122;12.776;2023-04-03T01:12:13;102299.75;;;-2.63;84.84
31092;BME280;67728;53.122;12.776;2023-04-03T01:13:47;102305.00;;;-2.60;84.97
31092;BME280;67728;53.122;12.776;2023-04-03T01:15:22;102304.03;;;-2.75;84.86
31092;BME280;67728;53.122;12.776;2023-04-03T01:16:54;102304.31;;;-2.83;84.99
31092;BME280;67728;53.122;12.776;2023-04-03T01:18:26;102298.75;;;-2.91;85.13
31092;BME280;67728;53.122;12.776;2023-04-03T01:20:24;102298.88;;;-2.76;86.02
31092;BME280;67728;53.122;12.776;2023-04-03T01:22:13;102299.75;;;-2.76;86.05
31092;BME280;67728;53.122;12.776;2023-04-03T01:24:00;102299.34;;;-2.82;86.64
31092;BME280;67728;53.122;12.776;2023-04-03T01:25:35;102306.28;;;-2.66;86.69
31092;BME280;67728;53.122;12.776;2023-04-03T01:27:09;102308.31;;;-2.61;86.88
31092;BME280;67728;53.122;12.776;2023-04-03T01:28:42;102308.91;;;-2.52;86.68
31092;BME280;67728;53.122;12.776;2023-04-03T01:30:14;102316.53;;;-2.52;86.33
31092;BME280;67728;53.122;12.776;2023-04-03T01:31:51;102313.09;;;-2.52;86.18
31092;BME280;67728;53.122;12.776;2023-04-03T01:33:23;102318.56;;;-2.59;85.49
31092;BME280;67728;53.122;12.776;2023-04-03T01:34:53;102322.09;;;-2.70;85.19
31092;BME280;67728;53.122;12.776;2023-04-03T01:36:27;102325.22;;;-2.61;86.54
31092;BME280;67728;53.122;12.776;2023-04-03T01:37:59;102328.03;;;-2.57;85.49
31092;BME280;67728;53.122;12.776;2023-04-03T01:39:31;102323.47;;;-2.49;86.38
31092;BME280;67728;53.122;12.776;2023-04-03T01:41:03;102330.09;;;-2.64;86.17
31092;BME280;67728;53.122;12.776;2023-04-03T01:42:33;102330.91;;;-2.65;85.74
31092;BME280;67728;53.122;12.776;2023-04-03T01:44:05;102334.28;;;-2.78;85.95
31092;BME280;67728;53.122;12.776;2023-04-03T01:45:37;102328.72;;;-2.72;86.36
31092;BME280;67728;53.122;12.776;2023-04-03T01:47:09;102341.91;;;-2.78;86.92
31092;BME280;67728;53.122;12.776;2023-04-03T01:48:42;102328.66;;;-2.74;86.28
31092;BME280;67728;53.122;12.776;2023-04-03T01:50:13;102342.59;;;-2.80;86.82
31092;BME280;67728;53.122;12.776;2023-04-03T01:51:45;102337.31;;;-2.83;86.52
31092;BME280;67728;53.122;12.776;2023-04-03T01:53:17;102333.53;;;-2.77;85.87
31092;BME280;67728;53.122;12.776;2023-04-03T01:54:48;102337.31;;;-2.83;86.62
31092;BME280;67728;53.122;12.776;2023-04-03T01:56:20;102339.97;;;-2.69;87.25
31092;BME280;67728;53.122;12.776;2023-04-03T01:57:52;102344.38;;;-2.79;87.43
31092;BME280;67728;53.122;12.776;2023-04-03T01:59:23;102347.78;;;-2.79;86.71
31092;BME280;67728;53.122;12.776;2023-04-03T02:00:55;102343.28;;;-2.83;86.38
31092;BME280;67728;53.122;12.776;2023-04-03T02:02:28;102339.28;;;-2.79;86.87
31092;BME280;67728;53.122;12.776;2023-04-03T02:04:00;102339.19;;;-2.68;87.21
31092;BME280;67728;53.122;12.776;2023-04-03T02:05:32;102339.47;;;-2.63;86.13
31092;BME280;67728;53.122;12.776;2023-04-03T02:07:02;102343.00;;;-2.74;85.79
31092;BME280;67728;53.122;12.776;2023-04-03T02:08:34;102344.16;;;-2.82;85.70
31092;BME280;67728;53.122;12.776;2023-04-03T02:10:06;102342.13;;;-2.75;87.42
31092;BME280;67728;53.122;12.776;2023-04-03T02:11:37;102341.03;;;-2.78;86.63
31092;BME280;67728;53.122;12.776;2023-04-03T02:13:08;102341.03;;;-2.78;87.19
31092;BME280;67728;53.122;12.776;2023-04-03T02:14:40;102339.97;;;-2.82;85.65
31092;BME280;67728;53.122;12.776;2023-04-03T02:16:11;102344.38;;;-2.92;85.89
31092;BME280;67728;53.122;12.776;2023-04-03T02:17:45;102345.53;;;-2.87;87.97
31092;BME280;67728;53.122;12.776;2023-04-03T02:19:16;102341.84;;;-2.79;86.79
31092;BME280;67728;53.122;12.776;2023-04-03T02:20:48;102341.91;;;-2.78;87.19
31092;BME280;67728;53.122;12.776;2023-04-03T02:22:20;102343.47;;;-2.80;86.57
31092;BME280;67728;53.122;12.776;2023-04-03T02:23:51;102337.63;;;-2.79;86.45
31092;BME280;67728;53.122;12.776;2023-04-03T02:25:23;102343.47;;;-2.80;87.18
31092;BME280;67728;53.122;12.776;2023-04-03T02:26:54;102344.66;;;-2.88;86.56
31092;BME280;67728;53.122;12.776;2023-04-03T02:28:26;102341.91;;;-2.78;86.14
31092;BME280;67728;53.122;12.776;2023-04-03T02:29:58;102340.88;;;-2.81;86.00
31092;BME280;67728;53.122;12.776;2023-04-03T02:31:29;102344.16;;;-2.82;86.84
31092;BME280;67728;53.122;12.776;2023-04-03T02:33:02;102340.94;;;-2.93;86.10
31092;BME280;67728;53.122;12.776;2023-04-03T02:34:34;102350.41;;;-2.77;86.77
31092;BME280;67728;53.122;12.776;2023-04-03T02:36:06;102354.53;;;-2.79;86.49
31092;BME280;67728;53.122;12.776;2023-04-03T02:37:39;102354.13;;;-2.72;86.58
31092;BME280;67728;53.122;12.776;2023-04-03T02:39:10;102352.75;;;-2.80;86.35
31092;BME280;67728;53.122;12.776;2023-04-03T02:40:42;102349.16;;;-2.84;86.14
31092;BME280;67728;53.122;12.776;2023-04-03T02:42:14;102356.47;;;-2.88;86.66
31092;BME280;67728;53.122;12.776;2023-04-03T02:43:45;102343.69;;;-2.90;86.52
31092;BME280;67728;53.122;12.776;2023-04-03T02:45:17;102354.72;;;-2.76;86.50
31092;BME280;67728;53.122;12.776;2023-04-03T02:46:49;102356.25;;;-2.78;87.10
31092;BME280;67728;53.122;12.776;2023-04-03T02:48:22;102355.97;;;-2.83;86.01
31092;BME280;67728;53.122;12.776;2023-04-03T02:49:54;102351.38;;;-2.88;85.12
31092;BME280;67728;53.122;12.776;2023-04-03T02:51:26;102366.41;;;-2.91;85.91
31092;BME280;67728;53.122;12.776;2023-04-03T02:52:57;102363.59;;;-2.83;85.42
31092;BME280;67728;53.122;12.776;2023-04-03T02:54:28;102356.09;;;-2.81;85.63
31092;BME280;67728;53.122;12.776;2023-04-03T02:56:00;102357.25;;;-2.76;85.46
31092;BME280;67728;53.122;12.776;2023-04-03T02:57:31;102357.06;;;-2.66;86.73
31092;BME280;67728;53.122;12.776;2023-04-03T02:59:03;102359.88;;;-2.75;86.23
31092;BME280;67728;53.122;12.776;2023-04-03T03:00:35;102356.19;;;-2.67;85.88
31092;BME280;67728;53.122;12.776;2023-04-03T03:02:07;102353.56;;;-2.68;85.54
31092;BME280;67728;53.122;12.776;2023-04-03T03:03:40;102348.16;;;-2.73;85.17
31092;BME280;67728;53.122;12.776;2023-04-03T03:05:10;102359.69;;;-2.65;85.40
31092;BME280;67728;53.122;12.776;2023-04-03T03:06:42;102362.13;;;-2.66;86.05
31092;BME280;67728;53.122;12.776;2023-04-03T03:08:12;102360.97;;;-2.71;85.38
31092;BME280;67728;53.122;12.776;2023-04-03T03:09:44;102365.66;;;-2.77;85.69
31092;BME280;67728;53.122;12.776;2023-04-03T03:11:16;102361.84;;;-2.84;85.60
31092;BME280;67728;53.122;12.776;2023-04-03T03:12:47;102361.25;;;-2.80;86.61
31092;BME280;67728;53.122;12.776;2023-04-03T03:14:19;102364.97;;;-2.75;85.76
31092;BME280;67728;53.122;12.776;2023-04-03T03:15:49;102364.56;;;-2.81;85.40
31092;BME280;67728;53.122;12.776;2023-04-03T03:17:21;102370.44;;;-2.82;86.05
31092;BME280;67728;53.122;12.776;2023-04-03T03:18:54;102361.47;;;-2.77;86.61
31092;BME280;67728;53.122;12.776;2023-04-03T03:20:26;102360.50;;;-2.79;85.91
31092;BME280;67728;53.122;12.776;2023-04-03T03:21:57;102359.88;;;-2.88;85.96
31092;BME280;67728;53.122;12.776;2023-04-03T03:23:30;102355.00;;;-2.85;86.17
31092;BME280;67728;53.122;12.776;2023-04-03T03:25:04;102356.84;;;-2.95;86.34
31092;BME280;67728;53.122;12.776;2023-04-03T03:26:36;102359.19;;;-2.98;86.27
31092;BME280;67728;53.122;12.776;2023-04-03T03:28:07;102357.63;;;-2.96;86.19
31092;BME280;67728;53.122;12.776;2023-04-03T03:29:39;102360.53;;;-3.17;86.46
31092;BME280;67728;53.122;12.776;2023-04-03T03:31:11;102362.88;;;-3.07;86.04
31092;BME280;67728;53.122;12.776;2023-04-03T03:32:42;102364.25;;;-2.98;86.83
31092;BME280;67728;53.122;12.776;2023-04-03T03:34:15;102359.25;;;-3.10;86.36
31092;BME280;67728;53.122;12.776;2023-04-03T03:35:47;102359.94;;;-3.13;85.90
31092;BME280;67728;53.122;12.776;2023-04-03T03:37:18;102354.50;;;-3.06;86.24
31092;BME280;67728;53.122;12.776;2023-04-03T03:38:49;102361.44;;;-3.03;86.25
31092;BME280;67728;53.122;12.776;2023-04-03T03:40:21;102359.19;;;-2.98;85.90
31092;BME280;67728;53.122;12.776;2023-04-03T03:41:53;102363.50;;;-2.97;86.97
31092;BME280;67728;53.122;12.776;2023-04-03T03:43:23;102365.25;;;-2.96;87.18
31092;BME280;67728;53.122;12.776;2023-04-03T03:44:55;102362.78;;;-3.08;87.02
31092;BME280;67728;53.122;12.776;2023-04-03T03:46:27;102366.41;;;-3.05;86.73
31092;BME280;67728;53.122;12.776;2023-04-03T03:47:57;102365.03;;;-2.99;85.73
31092;BME280;67728;53.122;12.776;2023-04-03T03:49:30;102362.69;;;-3.10;87.16
31092;BME280;67728;53.122;12.776;2023-04-03T03:51:02;102368.66;;;-3.09;87.03
31092;BME280;67728;53.122;12.776;2023-04-03T03:52:34;102366.66;;;-3.13;87.24
31092;BME280;67728;53.122;12.776;2023-04-03T03:54:06;102362.41;;;-3.01;87.09
31092;BME280;67728;53.122;12.776;2023-04-03T03:55:38;102360.16;;;-3.10;85.52
31092;BME280;67728;53.122;12.776;2023-04-03T03:57:10;102358.91;;;-3.03;86.50
31092;BME280;67728;53.122;12.776;2023-04-03T03:58:41;102356.16;;;-2.93;85.85
31092;BME280;67728;53.122;12.776;2023-04-03T04:00:14;102358.78;;;-2.91;85.82
31092;BME280;67728;53.122;12.776;2023-04-03T04:01:45;102361.72;;;-2.98;85.71
31092;BME280;67728;53.122;12.776;2023-04-03T04:03:17;102356.44;;;-3.02;87.11
31092;BME280;67728;53.122;12.776;2023-04-03T04:04:49;102352.53;;;-3.10;87.20
31092;BME280;67728;53.122;12.776;2023-04-03T04:06:21;102354.13;;;-2.98;87.17
31092;BME280;67728;53.122;12.776;2023-04-03T04:07:52;102353.34;;;-2.97;85.81
31092;BME280;67728;53.122;12.776;2023-04-03T04:09:24;102356.06;;;-2.94;86.27
31092;BME280;67728;53.122;12.776;2023-04-03T04:10:56;102355.09;;;-2.83;86.55
31092;BME280;67728;53.122;12.776;2023-04-03T04:12:27;102351.19;;;-2.91;87.59
31092;BME280;67728;53.122;12.776;2023-04-03T04:13:59;102355.50;;;-2.90;86.19
31092;BME280;67728;53.122;12.776;2023-04-03T04:15:30;102351.63;;;-3.23;87.66
31092;BME280;67728;53.122;12.776;2023-04-03T04:17:02;102353.63;;;-3.06;86.59
31092;BME280;67728;53.122;12.776;2023-04-03T04:18:34;102357.91;;;-3.05;86.53
31092;BME280;67728;53.122;12.776;2023-04-03T04:20:07;102353.16;;;-3.00;86.32
31092;BME280;67728;53.122;12.776;2023-04-03T04:21:40;102352.34;;;-2.99;85.81
31092;BME280;67728;53.122;12.776;2023-04-03T04:23:11;102359.59;;;-3.06;85.70
31092;BME280;67728;53.122;12.776;2023-04-03T04:24:43;102359.47;;;-2.94;86.01
31092;BME280;67728;53.122;12.776;2023-04-03T04:26:15;102348.34;;;-3.09;87.29
31092;BME280;67728;53.122;12.776;2023-04-03T04:27:46;102351.09;;;-2.93;86.37
31092;BME280;67728;53.122;12.776;2023-04-03T04:29:18;102351.50;;;-2.87;86.98
31092;BME280;67728;53.122;12.776;2023-04-03T04:30:49;102362.78;;;-3.08;87.33
31092;BME280;67728;53.122;12.776;2023-04-03T04:32:21;102347.94;;;-3.02;86.42
31092;BME280;67728;53.122;12.776;2023-04-03T04:33:53;102356.09;;;-2.81;87.40
31092;BME280;67728;53.122;12.776;2023-04-03T04:35:26;102362.34;;;-2.76;85.92
31092;BME280;67728;53.122;12.776;2023-04-03T04:36:57;102355.97;;;-2.70;85.94
31092;BME280;67728;53.122;12.776;2023-04-03T04:38:29;102362.41;;;-2.75;86.46
31092;BME280;67728;53.122;12.776;2023-04-03T04:40:01;102365.84;;;-2.74;85.51
31092;BME280;67728;53.122;12.776;2023-04-03T04:41:33;102360.47;;;-2.66;85.14
31092;BME280;67728;53.122;12.776;2023-04-03T04:43:05;102360.75;;;-2.61;85.28
31092;BME280;67728;53.122;12.776;2023-04-03T04:44:37;102356.84;;;-2.69;86.00
31092;BME280;67728;53.122;12.776;2023-04-03T04:46:10;102362.03;;;-2.55;85.10
31092;BME280;67728;53.122;12.776;2023-04-03T04:47:42;102367.41;;;-2.50;85.01
31092;BME280;67728;53.122;12.776;2023-04-03T04:49:14;102369.94;;;-2.50;84.99
31092;BME280;67728;53.122;12.776;2023-04-03T04:50:47;102377.75;;;-2.47;84.92
31092;BME280;67728;53.122;12.776;2023-04-03T04:52:19;102371.41;;;-2.41;85.29
31092;BME280;67728;53.122;12.776;2023-04-03T04:53:50;102375.41;;;-2.31;85.46
31092;BME280;67728;53.122;12.776;2023-04-03T04:55:22;102368.78;;;-2.42;85.16
31092;BME280;67728;53.122;12.776;2023-04-03T04:56:54;102371.69;;;-2.36;84.75
31092;BME280;67728;53.122;12.776;2023-04-03T04:58:25;102379.13;;;-2.52;83.90
31092;BME280;67728;53.122;12.776;2023-04-03T04:59:57;102378.13;;;-2.67;85.29
31092;BME280;67728;53.122;12.776;2023-04-03T05:01:28;102384.78;;;-2.56;85.59
31092;BME280;67728;53.122;12.776;2023-04-03T05:03:00;102385.88;;;-2.66;85.79
31092;BME280;67728;53.122;12.776;2023-04-03T05:04:32;102383.13;;;-2.69;86.00
31092;BME280;67728;53.122;12.776;2023-04-03T05:06:05;102388.31;;;-2.67;85.10
31092;BME280;67728;53.122;12.776;2023-04-03T05:07:37;102384.50;;;-2.74;85.33
31092;BME280;67728;53.122;12.776;2023-04-03T05:09:09;102385.78;;;-2.54;85.70
31092;BME280;67728;53.122;12.776;2023-04-03T05:10:41;102390.88;;;-2.41;86.37
31092;BME280;67728;53.122;12.776;2023-04-03T05:12:13;102386.06;;;-2.36;86.01
31092;BME280;67728;53.122;12.776;2023-04-03T05:13:44;102382.91;;;-2.32;84.34
31092;BME280;67728;53.122;12.776;2023-04-03T05:15:16;102389.88;;;-2.30;84.63
31092;BME280;67728;53.122;12.776;2023-04-03T05:16:48;102392.69;;;-2.25;84.47
31092;BME280;67728;53.122;12.776;2023-04-03T05:18:22;102381.88;;;-2.36;84.45
31092;BME280;67728;53.122;12.776;2023-04-03T05:19:54;102387.81;;;-2.49;84.88
31092;BME280;67728;53.122;12.776;2023-04-03T05:21:27;102391.91;;;-2.37;84.58
31092;BME280;67728;53.122;12.776;2023-04-03T05:23:02;102385.34;;;-2.21;85.34
31092;BME280;67728;53.122;12.776;2023-04-03T05:24:34;102387.31;;;-2.17;84.63
31092;BME280;67728;53.122;12.776;2023-04-03T05:26:05;102394.25;;;-2.14;84.22
31092;BME280;67728;53.122;12.776;2023-04-03T05:27:37;102391.81;;;-2.26;83.39
31092;BME280;67728;53.122;12.776;2023-04-03T05:29:09;102400.03;;;-2.30;84.75
31092;BME280;67728;53.122;12.776;2023-04-03T05:30:40;102393.38;;;-2.15;84.56
31092;BME280;67728;53.122;12.776;2023-04-03T05:32:12;102398.66;;;-2.12;84.39
31092;BME280;67728;53.122;12.776;2023-04-03T05:33:44;102402.06;;;-2.11;84.89
31092;BME280;67728;53.122;12.776;2023-04-03T05:35:16;102396.50;;;-2.06;83.90
31092;BME280;67728;53.122;12.776;2023-04-03T05:36:49;102397.06;;;-2.10;84.43
31092;BME280;67728;53.122;12.776;2023-04-03T05:38:20;102401.34;;;-1.96;84.42
31092;BME280;67728;53.122;12.776;2023-04-03T05:39:52;102405.63;;;-1.82;84.96
31092;BME280;67728;53.122;12.776;2023-04-03T05:41:23;102400.38;;;-1.70;84.83
31092;BME280;67728;53.122;12.776;2023-04-03T05:42:55;102408.72;;;-1.72;83.66
31092;BME280;67728;53.122;12.776;2023-04-03T05:44:26;102407.13;;;-1.57;83.94
31092;BME280;67728;53.122;12.776;2023-04-03T05:45:58;102404.56;;;-1.57;84.60
31092;BME280;67728;53.122;12.776;2023-04-03T05:47:30;102410.25;;;-1.61;84.12
31092;BME280;67728;53.122;12.776;2023-04-03T05:49:02;102409.16;;;-1.52;82.89
31092;BME280;67728;53.122;12.776;2023-04-03T05:50:33;102409.28;;;-1.63;83.44
31092;BME280;67728;53.122;12.776;2023-04-03T05:52:11;102412.09;;;-1.59;83.05
31092;BME280;67728;53.122;12.776;2023-04-03T05:53:50;102409.59;;;-1.44;82.88
31092;BME280;67728;53.122;12.776;2023-04-03T05:55:23;102411.91;;;-1.34;82.79
31092;BME280;67728;53.122;12.776;2023-04-03T05:56:55;102412.84;;;-1.32;82.40
31092;BME280;67728;53.122;12.776;2023-04-03T05:58:27;102418.56;;;-1.36;82.24
31092;BME280;67728;53.122;12.776;2023-04-03T05:59:58;102420.59;;;-1.31;83.65
31092;BME280;67728;53.122;12.776;2023-04-03T06:01:30;102427.22;;;-1.19;82.74
31092;BME280;67728;53.122;12.776;2023-04-03T06:03:02;102422.59;;;-0.68;79.76
31092;BME280;67728;53.122;12.776;2023-04-03T06:04:33;102423.91;;;-0.75;80.00
31092;BME280;67728;53.122;12.776;2023-04-03T06:06:05;102417.50;;;-0.68;79.38
31092;BME280;67728;53.122;12.776;2023-04-03T06:07:39;102429.44;;;-0.52;80.04
31092;BME280;67728;53.122;12.776;2023-04-03T06:09:11;102423.94;;;-0.29;78.62
31092;BME280;67728;53.122;12.776;2023-04-03T06:10:43;102425.81;;;-0.41;78.33
31092;BME280;67728;53.122;12.776;2023-04-03T06:12:15;102419.75;;;-0.43;79.45
31092;BME280;67728;53.122;12.776;2023-04-03T06:13:46;102432.88;;;-0.52;80.21
31092;BME280;67728;53.122;12.776;2023-04-03T06:15:18;102415.91;;;-0.51;79.90
31092;BME280;67728;53.122;12.776;2023-04-03T06:16:50;102426.59;;;-0.42;79.46
31092;BME280;67728;53.122;12.776;2023-04-03T06:18:22;102420.63;;;-0.43;79.62
31092;BME280;67728;53.122;12.776;2023-04-03T06:19:53;102430.03;;;-0.42;79.40
31092;BME280;67728;53.122;12.776;2023-04-03T06:21:26;102427.47;;;-0.27;78.33
31092;BME280;67728;53.122;12.776;2023-04-03T06:22:59;102437.53;;;0.17;76.00
31092;BME280;67728;53.122;12.776;2023-04-03T06:24:31;102432.19;;;0.12;75.67
31092;BME280;67728;53.122;12.776;2023-04-03T06:26:02;102434.16;;;0.02;77.33
31092;BME280;67728;53.122;12.776;2023-04-03T06:27:34;102434.69;;;-0.04;77.99
31092;BME280;67728;53.122;12.776;2023-04-03T06:29:06;102440.41;;;0.23;76.46
31092;BME280;67728;53.122;12.776;2023-04-03T06:30:37;102432.88;;;0.40;74.76
31092;BME280;67728;53.122;12.776;2023-04-03T06:32:09;102442.59;;;0.31;75.38
31092;BME280;67728;53.122;12.776;2023-04-03T06:33:40;102442.75;;;0.34;74.68
31092;BME280;67728;53.122;12.776;2023-04-03T06:35:12;102441.81;;;0.48;73.85
31092;BME280;67728;53.122;12.776;2023-04-03T06:36:44;102437.66;;;0.34;74.68
31092;BME280;67728;53.122;12.776;2023-04-03T06:38:17;102446.81;;;0.31;75.20
31092;BME280;67728;53.122;12.776;2023-04-03T06:39:49;102435.34;;;0.39;73.76
31092;BME280;67728;53.122;12.776;2023-04-03T06:41:20;102441.88;;;0.50;73.75
31092;BME280;67728;53.122;12.776;2023-04-03T06:42:52;102442.44;;;0.60;73.32
31092;BME280;67728;53.122;12.776;2023-04-03T06:44:24;102442.66;;;0.49;73.65
31092;BME280;67728;53.122;12.776;2023-04-03T06:45:56;102451.78;;;0.60;74.45
31092;BME280;67728;53.122;12.776;2023-04-03T06:47:28;102453.16;;;0.70;72.88
31092;BME280;67728;53.122;12.776;2023-04-03T06:48:59;102444.84;;;0.74;71.66
31092;BME280;67728;53.122;12.776;2023-04-03T06:50:32;102461.81;;;0.73;73.08
31092;BME280;67728;53.122;12.776;2023-04-03T06:52:03;102457.38;;;0.85;69.53
31092;BME280;67728;53.122;12.776;2023-04-03T06:53:37;102459.69;;;0.81;72.68
31092;BME280;67728;53.122;12.776;2023-04-03T06:55:09;102456.66;;;0.72;73.67
31092;BME280;67728;53.122;12.776;2023-04-03T06:56:41;102459.69;;;0.81;71.88
31092;BME280;67728;53.122;12.776;2023-04-03T06:58:12;102463.97;;;0.82;71.49
31092;BME280;67728;53.122;12.776;2023-04-03T06:59:45;102452.56;;;1.07;68.45
31092;BME280;67728;53.122;12.776;2023-04-03T07:01:17;102464.03;;;1.15;69.73
31092;BME280;67728;53.122;12.776;2023-04-03T07:02:50;102459.28;;;1.05;72.25
31092;BME280;67728;53.122;12.776;2023-04-03T07:04:22;102463.97;;;0.98;70.52
31092;BME280;67728;53.122;12.776;2023-04-03T07:05:53;102470.81;;;1.15;69.10
31092;BME280;67728;53.122;12.776;2023-04-03T07:07:25;102474.97;;;1.29;70.58
31092;BME280;67728;53.122;12.776;2023-04-03T07:08:58;102476.53;;;1.27;67.67
31092;BME280;67728;53.122;12.776;2023-04-03T07:10:30;102476.94;;;1.35;68.01
31092;BME280;67728;53.122;12.776;2023-04-03T07:12:02;102481.66;;;1.43;67.60
31092;BME280;67728;53.122;12.776;2023-04-03T07:13:34;102474.81;;;1.44;68.14
31092;BME280;67728;53.122;12.776;2023-04-03T07:15:07;102472.56;;;1.50;65.01
31092;BME280;67728;53.122;12.776;2023-04-03T07:16:39;102476.97;;;1.52;67.63
31092;BME280;67728;53.122;12.776;2023-04-03T07:18:11;102483.44;;;1.62;67.02
31092;BME280;67728;53.122;12.776;2023-04-03T07:19:42;102481.53;;;1.75;63.28
31092;BME280;67728;53.122;12.776;2023-04-03T07:21:14;102482.19;;;1.71;63.71
31092;BME280;67728;53.122;12.776;2023-04-03T07:22:45;102483.38;;;1.78;63.03
31092;BME280;67728;53.122;12.776;2023-04-03T07:24:18;102486.88;;;1.80;67.52
31092;BME280;67728;53.122;12.776;2023-04-03T07:25:51;102486.72;;;1.95;64.23
31092;BME280;67728;53.122;12.776;2023-04-03T07:27:23;102486.50;;;2.45;62.95
31092;BME280;67728;53.122;12.776;2023-04-03T07:28:55;102486.63;;;2.28;63.53
31092;BME280;67728;53.122;12.776;2023-04-03T07:30:27;102488.19;;;2.44;63.98
31092;BME280;67728;53.122;12.776;2023-04-03T07:31:58;102485.09;;;2.32;64.53
31092;BME280;67728;53.122;12.776;2023-04-03T07:33:30;102487.34;;;2.08;63.65
31092;BME280;67728;53.122;12.776;2023-04-03T07:35:03;102484.28;;;2.15;63.44
31092;BME280;67728;53.122;12.776;2023-04-03T07:36:34;102483.72;;;2.21;62.31
31092;BME280;67728;53.122;12.776;2023-04-03T07:38:06;102496.06;;;2.29;63.94
31092;BME280;67728;53.122;12.776;2023-04-03T07:39:39;102486.47;;;2.25;62.35
31092;BME280;67728;53.122;12.776;2023-04-03T07:41:16;102487.78;;;2.17;61.22
31092;BME280;67728;53.122;12.776;2023-04-03T07:42:48;102475.09;;;2.38;61.89
31092;BME280;67728;53.122;12.776;2023-04-03T07:44:20;102494.88;;;2.40;61.47
31092;BME280;67728;53.122;12.776;2023-04-03T07:45:52;102493.47;;;2.47;62.50
31092;BME280;67728;53.122;12.776;2023-04-03T07:47:24;102505.13;;;2.40;61.21
31092;BME280;67728;53.122;12.776;2023-04-03T07:48:56;102494.50;;;2.33;57.92
31092;BME280;67728;53.122;12.776;2023-04-03T07:50:28;102506.72;;;2.38;60.25
31092;BME280;67728;53.122;12.776;2023-04-03T07:52:00;102497.66;;;2.45;59.40
31092;BME280;67728;53.122;12.776;2023-04-03T07:53:32;102502.16;;;2.51;59.70
31092;BME280;67728;53.122;12.776;2023-04-03T07:55:09;102501.56;;;2.56;58.68
31092;BME280;67728;53.122;12.776;2023-04-03T07:56:41;102495.25;;;2.86;55.51
31092;BME280;67728;53.122;12.776;2023-04-03T07:58:14;102488.75;;;3.14;57.55